Time;durP1;ratioP1;P1;durP2;ratioP2;P2;SDS_P1;SDS_P2;PMS_P1;PMS_P2;Temp;Humidity;BMP_temperature;BMP_pressure;BME280_temperature;BME280_humidity;BME280_pressure;Samples;Min_cycle;Max_cycle;Signal;HPM_P1;HPM_P2
2022/07/02 00:01:29;;;;;;;18.40;8.27;;;;;;;;;;5052650;28;20415;-70
2022/07/02 00:03:56;;;;;;;19.25;10.32;;;;;;;;;;5051982;28;20032;-71
2022/07/02 00:06:23;;;;;;;15.13;10.07;;;;;;;;;;5052422;28;20045;-70
2022/07/02 00:08:49;;;;;;;18.98;10.55;;;;;;;;;;5034269;28;20057;-69
2022/07/02 00:11:15;;;;;;;25.27;12.75;;;;;;;;;;5034509;28;20410;-70
2022/07/02 00:13:41;;;;;;;21.85;11.13;;;;;;;;;;5034364;28;20057;-70
2022/07/02 00:16:10;;;;;;;19.15;12.00;;;;;;;;;;5052288;28;20060;-69
2022/07/02 00:18:36;;;;;;;16.98;10.70;;;;;;;;;;5052314;28;20041;-70
2022/07/02 00:21:02;;;;;;;23.05;10.60;;;;;;;;;;5051867;28;20099;-70
2022/07/02 00:23:28;;;;;;;20.98;10.77;;;;;;;;;;5052069;28;20041;-70
2022/07/02 00:25:57;;;;;;;15.80;9.93;;;;;;;;;;5051765;28;20044;-70
2022/07/02 00:28:23;;;;;;;16.83;10.80;;;;;;;;;;5051988;28;20464;-71
2022/07/02 00:30:49;;;;;;;20.27;11.00;;;;;;;;;;5051987;28;20051;-70
2022/07/02 00:33:15;;;;;;;12.95;10.23;;;;;;;;;;5049552;28;20045;-71
2022/07/02 00:35:41;;;;;;;20.42;11.07;;;;;;;;;;5059648;28;20052;-69
2022/07/02 00:38:08;;;;;;;13.77;7.60;;;;;;;;;;5071544;28;20103;-70
2022/07/02 00:40:34;;;;;;;12.48;7.53;;;;;;;;;;5053897;28;20045;-71
2022/07/02 00:43:00;;;;;;;9.43;6.97;;;;;;;;;;5071207;28;20491;-71
2022/07/02 00:45:26;;;;;;;11.82;6.80;;;;;;;;;;5070445;28;20028;-70
2022/07/02 00:47:53;;;;;;;10.00;7.68;;;;;;;;;;5071391;28;20142;-71
2022/07/02 00:50:19;;;;;;;10.32;7.32;;;;;;;;;;5070682;28;20032;-70
2022/07/02 00:52:45;;;;;;;8.13;7.28;;;;;;;;;;5070184;28;20040;-70
2022/07/02 00:55:11;;;;;;;8.27;6.88;;;;;;;;;;5053345;28;20044;-69
2022/07/02 00:57:37;;;;;;;8.65;5.80;;;;;;;;;;5070182;28;20617;-70
2022/07/02 01:00:03;;;;;;;8.13;5.25;;;;;;;;;;5070968;28;20191;-70
2022/07/02 01:02:30;;;;;;;12.10;6.25;;;;;;;;;;5053417;28;20123;-71
2022/07/02 01:04:55;;;;;;;9.77;5.93;;;;;;;;;;5070842;28;20136;-69
2022/07/02 01:07:22;;;;;;;11.05;7.22;;;;;;;;;;5020268;28;20119;-70
2022/07/02 01:12:33;;;;;;;9.30;8.30;;;;;;;;;;5070217;28;20178;-70
2022/07/02 01:14:59;;;;;;;10.65;8.75;;;;;;;;;;5070574;28;20151;-69
2022/07/02 01:17:25;;;;;;;11.52;9.27;;;;;;;;;;5053233;28;20571;-69
2022/07/02 01:19:51;;;;;;;13.30;8.55;;;;;;;;;;5070980;28;20046;-69
2022/07/02 01:22:20;;;;;;;12.90;7.50;;;;;;;;;;5070819;28;20043;-70
2022/07/02 01:24:47;;;;;;;12.40;8.07;;;;;;;;;;5070683;28;20051;-70
2022/07/02 01:27:13;;;;;;;11.48;8.02;;;;;;;;;;5052989;28;20489;-69
2022/07/02 01:29:39;;;;;;;6.82;6.00;;;;;;;;;;5070513;28;20142;-70
2022/07/02 01:32:06;;;;;;;9.20;6.32;;;;;;;;;;5070458;28;20036;-70
2022/07/02 01:34:39;;;;;;;12.60;7.88;;;;;;;;;;5070374;28;20044;-70
2022/07/02 01:37:09;;;;;;;11.68;6.90;;;;;;;;;;5070654;28;20040;-70
2022/07/02 01:39:35;;;;;;;11.80;7.22;;;;;;;;;;5070441;28;20095;-70
2022/07/02 01:42:01;;;;;;;8.85;6.22;;;;;;;;;;5070175;28;20040;-70
2022/07/02 01:44:27;;;;;;;10.88;7.00;;;;;;;;;;5070416;28;20048;-71
2022/07/02 01:46:53;;;;;;;17.85;7.35;;;;;;;;;;5070359;28;20047;-68
2022/07/02 01:49:19;;;;;;;11.15;6.80;;;;;;;;;;5070049;28;20057;-70
2022/07/02 01:51:45;;;;;;;8.50;6.80;;;;;;;;;;5070233;28;20048;-71
2022/07/02 01:54:11;;;;;;;14.88;7.30;;;;;;;;;;5070026;28;20040;-69
2022/07/02 01:56:37;;;;;;;6.90;6.20;;;;;;;;;;5070270;28;20051;-70
2022/07/02 01:59:03;;;;;;;12.55;6.15;;;;;;;;;;5051852;28;20134;-71
2022/07/02 02:01:29;;;;;;;13.25;6.50;;;;;;;;;;5070140;28;20095;-70
2022/07/02 02:03:55;;;;;;;8.02;6.28;;;;;;;;;;5052106;28;20541;-70
2022/07/02 02:06:21;;;;;;;14.10;6.90;;;;;;;;;;5052105;28;20032;-70
2022/07/02 02:08:48;;;;;;;12.90;6.43;;;;;;;;;;5069689;28;20052;-70
2022/07/02 02:11:14;;;;;;;9.60;6.72;;;;;;;;;;5069990;28;20068;-71
2022/07/02 02:13:40;;;;;;;11.23;7.10;;;;;;;;;;5069854;28;20041;-71
2022/07/02 02:16:26;;;;;;;17.08;6.78;;;;;;;;;;5055063;28;20132;-71
2022/07/02 02:18:53;;;;;;;12.63;6.50;;;;;;;;;;5068553;28;20052;-70
2022/07/02 02:21:19;;;;;;;9.85;6.95;;;;;;;;;;5069580;28;20104;-70
2022/07/02 02:23:45;;;;;;;14.40;6.82;;;;;;;;;;5069611;28;20049;-70
2022/07/02 02:26:10;;;;;;;7.20;6.50;;;;;;;;;;5069765;28;20044;-69
2022/07/02 02:28:36;;;;;;;12.00;6.95;;;;;;;;;;5070874;28;20132;-71
2022/07/02 02:31:03;;;;;;;13.00;6.97;;;;;;;;;;5052917;28;20048;-71
2022/07/02 02:33:28;;;;;;;10.18;6.45;;;;;;;;;;5070083;28;20067;-70
2022/07/02 02:35:55;;;;;;;10.55;6.68;;;;;;;;;;5051471;28;20103;-70
2022/07/02 02:38:21;;;;;;;12.15;6.88;;;;;;;;;;5069471;28;20048;-71
2022/07/02 02:40:47;;;;;;;15.40;7.05;;;;;;;;;;5069551;28;20123;-71
2022/07/02 02:43:13;;;;;;;8.07;6.93;;;;;;;;;;5051575;28;20515;-70
2022/07/02 02:45:39;;;;;;;14.73;6.63;;;;;;;;;;5069402;28;20046;-69
2022/07/02 02:48:05;;;;;;;11.55;6.65;;;;;;;;;;5069218;28;20566;-70
2022/07/02 02:50:31;;;;;;;15.20;6.88;;;;;;;;;;5069420;28;20044;-70
2022/07/02 02:52:57;;;;;;;8.20;7.13;;;;;;;;;;5069500;28;20048;-70
2022/07/02 02:55:23;;;;;;;7.60;6.90;;;;;;;;;;5069134;28;20060;-70
2022/07/02 02:57:49;;;;;;;11.85;7.00;;;;;;;;;;5051280;28;20055;-69
2022/07/02 03:00:15;;;;;;;9.77;7.15;;;;;;;;;;5069070;28;20055;-70
2022/07/02 03:02:41;;;;;;;11.52;7.13;;;;;;;;;;5069321;28;20056;-70
2022/07/02 03:05:07;;;;;;;10.38;7.68;;;;;;;;;;5069175;28;20299;-70
2022/07/02 03:07:33;;;;;;;9.23;6.43;;;;;;;;;;5070260;28;20183;-69
2022/07/02 03:09:59;;;;;;;15.48;7.00;;;;;;;;;;5069565;28;20132;-70
2022/07/02 03:12:25;;;;;;;10.10;6.53;;;;;;;;;;5070188;28;20036;-71
2022/07/02 03:14:51;;;;;;;6.88;6.18;;;;;;;;;;5073190;28;20210;-69
2022/07/02 03:17:17;;;;;;;8.55;6.07;;;;;;;;;;5073242;28;20507;-71
2022/07/02 03:19:44;;;;;;;11.50;5.68;;;;;;;;;;5073169;28;20047;-71
2022/07/02 03:22:10;;;;;;;10.13;5.63;;;;;;;;;;5073135;28;20049;-71
2022/07/02 03:24:35;;;;;;;7.25;6.00;;;;;;;;;;5073088;28;20036;-70
2022/07/02 03:27:02;;;;;;;17.52;5.95;;;;;;;;;;5072852;28;20099;-71
2022/07/02 03:29:27;;;;;;;10.45;5.40;;;;;;;;;;5054941;28;20054;-71
2022/07/02 03:31:54;;;;;;;9.40;5.95;;;;;;;;;;5071752;28;20051;-71
2022/07/02 03:34:20;;;;;;;9.35;5.50;;;;;;;;;;5054898;28;20224;-71
2022/07/02 03:36:45;;;;;;;11.63;6.32;;;;;;;;;;5072843;28;20507;-72
2022/07/02 03:39:11;;;;;;;12.05;5.35;;;;;;;;;;5054840;28;20036;-70
2022/07/02 03:41:37;;;;;;;8.07;5.28;;;;;;;;;;5055168;28;20127;-70
2022/07/02 03:44:03;;;;;;;12.02;5.03;;;;;;;;;;5072384;28;20048;-71
2022/07/02 03:46:29;;;;;;;11.70;5.03;;;;;;;;;;5072853;28;20040;-70
2022/07/02 03:48:55;;;;;;;11.35;5.22;;;;;;;;;;5054713;28;20052;-71
2022/07/02 03:51:21;;;;;;;11.27;5.28;;;;;;;;;;5054688;28;20071;-71
2022/07/02 03:53:48;;;;;;;9.73;5.65;;;;;;;;;;5072571;28;20135;-71
2022/07/02 03:56:14;;;;;;;16.88;5.78;;;;;;;;;;5072483;28;20045;-71
2022/07/02 03:58:40;;;;;;;17.58;5.60;;;;;;;;;;5072416;28;20040;-70
2022/07/02 04:01:07;;;;;;;31.77;6.15;;;;;;;;;;5072235;28;20044;-71
2022/07/02 04:03:36;;;;;;;11.15;5.50;;;;;;;;;;5072292;28;20043;-69
2022/07/02 04:06:01;;;;;;;9.73;5.53;;;;;;;;;;5072353;28;20498;-71
2022/07/02 04:08:27;;;;;;;12.40;5.85;;;;;;;;;;5054226;28;20052;-70
2022/07/02 04:10:53;;;;;;;11.90;5.50;;;;;;;;;;5070810;28;20447;-69
2022/07/02 04:13:20;;;;;;;10.35;5.47;;;;;;;;;;5054095;28;20055;-70
2022/07/02 04:15:46;;;;;;;15.20;6.03;;;;;;;;;;5071999;28;20465;-70
2022/07/02 04:18:12;;;;;;;8.68;5.03;;;;;;;;;;5072076;28;20052;-70
2022/07/02 04:20:38;;;;;;;9.80;5.30;;;;;;;;;;5070844;28;20043;-70
2022/07/02 04:23:04;;;;;;;8.63;4.43;;;;;;;;;;5071863;28;20044;-70
2022/07/02 04:25:30;;;;;;;7.18;5.30;;;;;;;;;;5070752;28;20033;-71
2022/07/02 04:27:55;;;;;;;9.70;4.93;;;;;;;;;;5053549;28;20045;-70
2022/07/02 04:30:21;;;;;;;9.32;4.88;;;;;;;;;;5071551;28;20144;-70
2022/07/02 04:32:47;;;;;;;8.77;5.03;;;;;;;;;;5070612;28;20037;-70
2022/07/02 04:35:13;;;;;;;12.82;4.93;;;;;;;;;;5053374;28;20092;-70
2022/07/02 04:37:40;;;;;;;5.38;4.55;;;;;;;;;;5071882;28;20044;-70
2022/07/02 04:40:06;;;;;;;7.10;5.00;;;;;;;;;;5071560;28;20044;-72
2022/07/02 04:42:32;;;;;;;8.38;5.05;;;;;;;;;;5071791;28;20124;-71
2022/07/02 04:44:58;;;;;;;5.00;4.30;;;;;;;;;;5071700;28;20131;-71
2022/07/02 04:47:24;;;;;;;6.53;4.40;;;;;;;;;;5071444;28;20415;-70
2022/07/02 04:49:50;;;;;;;4.13;3.78;;;;;;;;;;5070373;28;20488;-70
2022/07/02 04:52:17;;;;;;;7.63;4.18;;;;;;;;;;5071333;28;20090;-70
2022/07/02 04:54:43;;;;;;;6.22;4.20;;;;;;;;;;5071525;28;20075;-70
2022/07/02 04:57:09;;;;;;;7.53;4.50;;;;;;;;;;5053616;28;20068;-70
2022/07/02 04:59:35;;;;;;;4.47;3.80;;;;;;;;;;5071329;28;20064;-69
2022/07/02 05:02:01;;;;;;;5.85;4.32;;;;;;;;;;5071267;28;20094;-71
2022/07/02 05:04:27;;;;;;;5.45;4.78;;;;;;;;;;5070999;28;20131;-71
2022/07/02 05:06:52;;;;;;;7.30;4.57;;;;;;;;;;5071230;28;20040;-70
2022/07/02 05:09:18;;;;;;;6.40;4.70;;;;;;;;;;5070921;28;20523;-72
2022/07/02 05:11:45;;;;;;;5.43;4.45;;;;;;;;;;5071163;28;20037;-70
2022/07/02 05:14:11;;;;;;;8.43;5.22;;;;;;;;;;5070853;28;20060;-70
2022/07/02 05:16:37;;;;;;;5.05;4.30;;;;;;;;;;5071188;28;20049;-70
2022/07/02 05:19:02;;;;;;;4.47;4.07;;;;;;;;;;5070852;28;20044;-70
2022/07/02 05:21:28;;;;;;;5.30;3.90;;;;;;;;;;5070828;28;20041;-72
2022/07/02 05:23:54;;;;;;;4.25;3.88;;;;;;;;;;5070978;28;20053;-71
2022/07/02 05:26:20;;;;;;;8.95;4.20;;;;;;;;;;5070479;28;20036;-70
2022/07/02 05:28:46;;;;;;;8.13;4.18;;;;;;;;;;5070667;28;20059;-71
2022/07/02 05:31:12;;;;;;;9.30;3.88;;;;;;;;;;5070425;28;20048;-72
2022/07/02 05:33:38;;;;;;;3.95;3.65;;;;;;;;;;5070862;28;20033;-72
2022/07/02 05:36:04;;;;;;;5.50;4.07;;;;;;;;;;5052373;28;20071;-71
2022/07/02 05:38:30;;;;;;;6.60;4.18;;;;;;;;;;5070856;28;20082;-71
2022/07/02 05:40:56;;;;;;;5.28;4.53;;;;;;;;;;5053192;28;20044;-72
2022/07/02 05:43:22;;;;;;;5.47;4.38;;;;;;;;;;5070502;28;20052;-71
2022/07/02 05:45:48;;;;;;;4.28;3.88;;;;;;;;;;5070473;28;20041;-70
2022/07/02 05:48:14;;;;;;;5.75;3.83;;;;;;;;;;5069066;28;20041;-72
2022/07/02 05:50:40;;;;;;;3.83;3.63;;;;;;;;;;5070336;28;20103;-72
2022/07/02 05:53:06;;;;;;;9.00;4.00;;;;;;;;;;5070541;28;20036;-71
2022/07/02 05:55:32;;;;;;;7.50;4.82;;;;;;;;;;5052296;28;20131;-72
2022/07/02 05:57:58;;;;;;;7.05;4.13;;;;;;;;;;5070162;28;20503;-70
2022/07/02 06:00:23;;;;;;;4.82;3.88;;;;;;;;;;5069973;28;20029;-72
2022/07/02 06:02:50;;;;;;;4.28;3.92;;;;;;;;;;5070131;28;20056;-73
2022/07/02 06:08:00;;;;;;;8.38;3.70;;;;;;;;;;5070004;28;20051;-71
2022/07/02 06:10:26;;;;;;;5.03;3.80;;;;;;;;;;5069602;28;20056;-71
2022/07/02 06:12:52;;;;;;;4.45;4.00;;;;;;;;;;5069986;28;20048;-70
2022/07/02 06:15:19;;;;;;;4.07;3.78;;;;;;;;;;5069516;28;20461;-71
2022/07/02 06:17:45;;;;;;;5.38;4.88;;;;;;;;;;5069795;28;20036;-70
2022/07/02 06:20:11;;;;;;;5.18;4.80;;;;;;;;;;5069634;28;20544;-72
2022/07/02 06:22:37;;;;;;;5.55;4.85;;;;;;;;;;5069834;28;20056;-71
2022/07/02 06:25:04;;;;;;;4.03;3.63;;;;;;;;;;5069703;28;20063;-71
2022/07/02 06:27:33;;;;;;;5.68;4.15;;;;;;;;;;5068476;28;20093;-71
2022/07/02 06:29:59;;;;;;;5.68;3.95;;;;;;;;;;5069704;28;20186;-70
2022/07/02 06:32:25;;;;;;;7.45;4.57;;;;;;;;;;5069730;28;20179;-70
2022/07/02 06:34:51;;;;;;;4.03;3.60;;;;;;;;;;5069450;28;20581;-71
2022/07/02 06:37:18;;;;;;;4.20;3.80;;;;;;;;;;5069594;28;20047;-71
2022/07/02 06:39:43;;;;;;;9.25;4.35;;;;;;;;;;5069657;28;20048;-71
2022/07/02 06:42:18;;;;;;;10.32;4.50;;;;;;;;;;5069685;28;20051;-71
2022/07/02 06:44:46;;;;;;;5.20;4.20;;;;;;;;;;5051896;28;20487;-72
2022/07/02 06:47:12;;;;;;;6.25;3.88;;;;;;;;;;5068734;28;20153;-71
2022/07/02 06:49:38;;;;;;;6.97;4.20;;;;;;;;;;5069366;28;20048;-71
2022/07/02 06:52:04;;;;;;;4.15;3.72;;;;;;;;;;5069390;28;20616;-71
2022/07/02 06:54:30;;;;;;;7.65;4.10;;;;;;;;;;5069293;28;20048;-71
2022/07/02 06:56:57;;;;;;;4.47;4.07;;;;;;;;;;5069540;28;20518;-71
2022/07/02 06:59:22;;;;;;;6.82;4.30;;;;;;;;;;5069111;28;20037;-71
2022/07/02 07:01:49;;;;;;;4.68;4.00;;;;;;;;;;5069385;28;20052;-70
2022/07/02 07:04:15;;;;;;;4.78;3.70;;;;;;;;;;5069396;28;20427;-70
2022/07/02 07:06:46;;;;;;;8.43;4.00;;;;;;;;;;5069378;28;20503;-71
2022/07/02 07:09:12;;;;;;;4.55;3.85;;;;;;;;;;5069449;28;20063;-71
2022/07/02 07:11:38;;;;;;;8.60;4.13;;;;;;;;;;5069243;28;20074;-71
2022/07/02 07:14:04;;;;;;;4.85;3.90;;;;;;;;;;5069331;28;20425;-71
2022/07/02 07:16:30;;;;;;;5.13;3.80;;;;;;;;;;5067632;28;20036;-71
2022/07/02 07:19:04;;;;;;;4.20;3.90;;;;;;;;;;5069333;28;20198;-71
2022/07/02 07:21:31;;;;;;;4.57;4.18;;;;;;;;;;5068994;28;20040;-71
2022/07/02 07:23:57;;;;;;;6.22;4.70;;;;;;;;;;5069217;28;20036;-70
2022/07/02 07:26:23;;;;;;;6.22;4.85;;;;;;;;;;5069134;28;20075;-71
2022/07/02 07:28:49;;;;;;;4.28;3.92;;;;;;;;;;5069132;28;20139;-72
2022/07/02 07:31:21;;;;;;;5.43;3.80;;;;;;;;;;5068758;28;20103;-71
2022/07/02 07:33:48;;;;;;;4.32;4.03;;;;;;;;;;5069193;28;20048;-71
2022/07/02 07:36:13;;;;;;;6.72;3.85;;;;;;;;;;5068865;28;20233;-70
2022/07/02 07:38:40;;;;;;;6.70;3.88;;;;;;;;;;5069215;28;20044;-70
2022/07/02 07:41:06;;;;;;;9.88;4.00;;;;;;;;;;5069168;28;20025;-72
2022/07/02 07:43:32;;;;;;;7.63;3.50;;;;;;;;;;5069071;28;20103;-71
2022/07/02 07:45:58;;;;;;;4.00;3.70;;;;;;;;;;5051185;28;20454;-71
2022/07/02 07:48:24;;;;;;;3.67;3.47;;;;;;;;;;5068792;28;20475;-71
2022/07/02 07:50:50;;;;;;;3.80;3.53;;;;;;;;;;5069073;28;20472;-71
2022/07/02 07:53:16;;;;;;;6.43;3.83;;;;;;;;;;5068448;28;20040;-72
2022/07/02 07:55:42;;;;;;;6.50;4.15;;;;;;;;;;5069070;28;20036;-71
2022/07/02 07:58:08;;;;;;;5.40;4.68;;;;;;;;;;5069200;28;20128;-72
2022/07/02 08:00:34;;;;;;;4.50;4.20;;;;;;;;;;5054368;28;20175;-70
2022/07/02 08:03:00;;;;;;;4.40;4.10;;;;;;;;;;5071267;28;20040;-70
2022/07/02 08:05:26;;;;;;;6.13;4.10;;;;;;;;;;5072211;28;20038;-71
2022/07/02 08:07:52;;;;;;;4.72;4.32;;;;;;;;;;5072504;28;20036;-71
2022/07/02 08:10:17;;;;;;;6.32;4.05;;;;;;;;;;5053940;28;20067;-71
2022/07/02 08:12:44;;;;;;;4.53;3.90;;;;;;;;;;5072619;28;20036;-72
2022/07/02 08:15:10;;;;;;;3.70;3.50;;;;;;;;;;5054378;28;20126;-71
2022/07/02 08:17:36;;;;;;;3.92;3.63;;;;;;;;;;5072141;28;20046;-71
2022/07/02 08:20:04;;;;;;;4.35;3.95;;;;;;;;;;5072207;28;20037;-71
2022/07/02 08:22:31;;;;;;;11.07;3.63;;;;;;;;;;5072242;28;20037;-73
2022/07/02 08:24:57;;;;;;;5.40;3.63;;;;;;;;;;5072056;28;20286;-71
2022/07/02 08:27:23;;;;;;;5.15;3.67;;;;;;;;;;5071936;28;20049;-71
2022/07/02 08:29:49;;;;;;;3.95;3.65;;;;;;;;;;5071885;28;20085;-73
2022/07/02 08:32:15;;;;;;;4.00;3.70;;;;;;;;;;5072173;28;20055;-73
2022/07/02 08:34:41;;;;;;;4.28;3.95;;;;;;;;;;5053769;28;20443;-71
2022/07/02 08:37:07;;;;;;;4.68;3.80;;;;;;;;;;5072011;28;20044;-74
2022/07/02 08:39:33;;;;;;;10.65;4.25;;;;;;;;;;5071995;28;20114;-74
2022/07/02 08:41:59;;;;;;;4.35;4.00;;;;;;;;;;5054823;28;20072;-74
2022/07/02 08:44:25;;;;;;;4.90;4.43;;;;;;;;;;5070870;28;20074;-73
2022/07/02 08:46:51;;;;;;;4.35;4.05;;;;;;;;;;5071819;28;20525;-74
2022/07/02 08:49:18;;;;;;;4.20;3.83;;;;;;;;;;5071672;28;20603;-74
2022/07/02 08:51:49;;;;;;;4.68;4.35;;;;;;;;;;5071556;28;20033;-71
2022/07/02 08:54:16;;;;;;;5.25;4.10;;;;;;;;;;5071568;28;20147;-73
2022/07/02 08:56:42;;;;;;;7.80;4.28;;;;;;;;;;5071292;28;20127;-72
2022/07/02 08:59:08;;;;;;;3.40;3.10;;;;;;;;;;5071644;28;20388;-71
2022/07/02 09:01:33;;;;;;;4.18;3.80;;;;;;;;;;5071357;28;20094;-71
2022/07/02 09:03:59;;;;;;;4.70;3.95;;;;;;;;;;5071371;28;20515;-70
2022/07/02 09:06:29;;;;;;;4.45;3.70;;;;;;;;;;5071094;28;20056;-70
2022/07/02 09:08:55;;;;;;;4.88;3.58;;;;;;;;;;5053408;28;20055;-70
2022/07/02 09:11:22;;;;;;;6.00;3.78;;;;;;;;;;5070219;28;20033;-73
2022/07/02 09:13:48;;;;;;;3.83;3.53;;;;;;;;;;5053244;28;20074;-71
2022/07/02 09:16:14;;;;;;;4.20;3.40;;;;;;;;;;5071090;28;20044;-72
2022/07/02 09:18:40;;;;;;;3.38;2.78;;;;;;;;;;5070788;28;20028;-71
2022/07/02 09:21:06;;;;;;;3.72;3.42;;;;;;;;;;5070903;28;20494;-72
2022/07/02 09:23:32;;;;;;;6.45;4.00;;;;;;;;;;5070865;28;20094;-71
2022/07/02 09:25:58;;;;;;;5.82;3.90;;;;;;;;;;5069678;28;20079;-71
2022/07/02 09:28:24;;;;;;;7.72;4.10;;;;;;;;;;5070592;28;20091;-71
2022/07/02 09:30:50;;;;;;;6.85;3.72;;;;;;;;;;5070736;28;20068;-71
2022/07/02 09:33:29;;;;;;;5.03;4.50;;;;;;;;;;5070868;28;20453;-71
2022/07/02 09:35:55;;;;;;;3.78;3.47;;;;;;;;;;5056903;28;20598;-70
2022/07/02 09:38:21;;;;;;;4.22;3.70;;;;;;;;;;5032993;28;20052;-73
2022/07/02 09:40:54;;;;;;;3.50;3.20;;;;;;;;;;5050636;28;20051;-73
2022/07/02 09:43:32;;;;;;;3.97;3.60;;;;;;;;;;5032705;28;20087;-70
2022/07/02 09:45:59;;;;;;;12.30;3.60;;;;;;;;;;5050499;28;20173;-71
2022/07/02 09:48:25;;;;;;;7.95;3.95;;;;;;;;;;5050356;28;20040;-72
2022/07/02 09:50:53;;;;;;;3.80;3.40;;;;;;;;;;5050530;28;20387;-70
2022/07/02 09:53:20;;;;;;;4.70;3.63;;;;;;;;;;5050531;28;20045;-72
2022/07/02 09:55:49;;;;;;;3.92;3.55;;;;;;;;;;5049310;28;20120;-71
2022/07/02 09:58:25;;;;;;;4.10;3.70;;;;;;;;;;5050527;28;20045;-71
2022/07/02 10:00:51;;;;;;;3.15;2.95;;;;;;;;;;5050355;28;20056;-71
2022/07/02 10:03:18;;;;;;;4.68;3.30;;;;;;;;;;5050203;28;20614;-71
2022/07/02 10:05:50;;;;;;;6.15;3.47;;;;;;;;;;5050164;28;20044;-72
2022/07/02 10:08:16;;;;;;;4.13;3.00;;;;;;;;;;5050228;28;20120;-71
2022/07/02 10:10:42;;;;;;;5.18;3.67;;;;;;;;;;5049893;28;20168;-71
2022/07/02 10:13:08;;;;;;;5.55;4.13;;;;;;;;;;5050109;28;20037;-71
2022/07/02 10:15:36;;;;;;;4.95;3.47;;;;;;;;;;5048487;28;20055;-71
2022/07/02 10:18:03;;;;;;;3.63;3.38;;;;;;;;;;5049828;28;20037;-71
2022/07/02 10:20:29;;;;;;;3.10;2.90;;;;;;;;;;5049714;28;20128;-70
2022/07/02 10:22:58;;;;;;;3.90;3.60;;;;;;;;;;5049228;28;20127;-71
2022/07/02 10:25:24;;;;;;;3.17;2.92;;;;;;;;;;5048552;28;20558;-72
2022/07/02 10:27:51;;;;;;;2.70;2.50;;;;;;;;;;5049895;28;20037;-72
2022/07/02 10:30:21;;;;;;;3.30;2.40;;;;;;;;;;5049667;28;20088;-72
2022/07/02 10:32:47;;;;;;;3.50;3.20;;;;;;;;;;5048300;28;20037;-71
2022/07/02 10:35:14;;;;;;;3.25;3.05;;;;;;;;;;5056246;28;20522;-70
2022/07/02 10:37:40;;;;;;;3.88;3.58;;;;;;;;;;5069667;28;20037;-71
2022/07/02 10:40:07;;;;;;;3.38;3.10;;;;;;;;;;5069658;28;20503;-71
2022/07/02 10:42:39;;;;;;;3.40;3.10;;;;;;;;;;5069556;28;20091;-72
2022/07/02 10:45:12;;;;;;;9.30;3.70;;;;;;;;;;5068360;28;20037;-72
2022/07/02 10:47:51;;;;;;;4.18;3.47;;;;;;;;;;5069381;28;20074;-71
2022/07/02 10:50:17;;;;;;;3.25;3.05;;;;;;;;;;5069467;28;20052;-71
2022/07/02 10:52:49;;;;;;;6.47;3.00;;;;;;;;;;5069331;28;20032;-71
2022/07/02 10:55:27;;;;;;;4.55;3.00;;;;;;;;;;5069510;28;20040;-71
2022/07/02 10:58:00;;;;;;;7.15;3.25;;;;;;;;;;5069519;28;20067;-71
2022/07/02 11:00:31;;;;;;;4.30;3.35;;;;;;;;;;5069028;28;20048;-72
2022/07/02 11:02:56;;;;;;;;;;;;;;;;;;5069883;28;20044;-72
2022/07/02 11:05:22;;;;;;;6.80;3.58;;;;;;;;;;5069475;28;19979;-72
2022/07/02 11:07:48;;;;;;;3.53;3.20;;;;;;;;;;5069527;28;20043;-71
2022/07/02 11:10:14;;;;;;;4.35;3.10;;;;;;;;;;5069129;28;20056;-72
2022/07/02 11:12:46;;;;;;;3.92;2.97;;;;;;;;;;5069308;28;20032;-71
2022/07/02 11:15:17;;;;;;;3.42;3.13;;;;;;;;;;5067865;28;20047;-71
2022/07/02 11:17:42;;;;;;;;;;;;;;;;;;5069600;28;20040;-73
2022/07/02 11:20:09;;;;;;;5.95;3.10;;;;;;;;;;5069219;28;19912;-73
2022/07/02 11:22:35;;;;;;;3.95;3.28;;;;;;;;;;5069088;28;20044;-72
2022/07/02 11:25:01;;;;;;;8.68;4.55;;;;;;;;;;5051277;28;20363;-72
2022/07/02 11:27:27;;;;;;;5.95;3.20;;;;;;;;;;5051024;28;20060;-71
2022/07/02 11:29:53;;;;;;;4.45;2.75;;;;;;;;;;5069334;28;20048;-72
2022/07/02 11:32:20;;;;;;;3.60;3.30;;;;;;;;;;5069251;28;20047;-71
2022/07/02 11:34:46;;;;;;;8.30;3.40;;;;;;;;;;5054532;28;20048;-71
2022/07/02 11:37:19;;;;;;;4.78;3.28;;;;;;;;;;5074018;28;20044;-71
2022/07/02 11:39:45;;;;;;;6.70;3.55;;;;;;;;;;5073320;28;20048;-70
2022/07/02 11:42:11;;;;;;;8.20;3.22;;;;;;;;;;5073022;28;20653;-72
2022/07/02 11:44:37;;;;;;;4.68;3.30;;;;;;;;;;5054990;28;20090;-71
2022/07/02 11:47:03;;;;;;;7.35;3.33;;;;;;;;;;5072971;28;20105;-71
2022/07/02 11:49:33;;;;;;;3.50;3.25;;;;;;;;;;5072515;28;20422;-71
2022/07/02 11:51:59;;;;;;;4.65;3.05;;;;;;;;;;5072728;28;20450;-71
2022/07/02 11:54:26;;;;;;;9.38;3.40;;;;;;;;;;5072727;28;20124;-72
2022/07/02 11:56:52;;;;;;;3.70;3.40;;;;;;;;;;5072309;28;20086;-71
2022/07/02 11:59:22;;;;;;;4.07;2.85;;;;;;;;;;5072740;28;20083;-70
2022/07/02 12:01:49;;;;;;;3.45;3.15;;;;;;;;;;5072332;28;20047;-71
2022/07/02 12:04:22;;;;;;;3.17;2.92;;;;;;;;;;5055593;28;20051;-72
2022/07/02 12:06:48;;;;;;;4.90;3.10;;;;;;;;;;5072183;28;20384;-72
2022/07/02 12:09:15;;;;;;;7.47;3.30;;;;;;;;;;5072658;28;20396;-72
2022/07/02 12:11:41;;;;;;;3.30;3.00;;;;;;;;;;5072213;28;20033;-71
2022/07/02 12:14:09;;;;;;;7.20;3.28;;;;;;;;;;5072692;28;20056;-70
2022/07/02 12:16:35;;;;;;;3.30;3.10;;;;;;;;;;5070842;28;20036;-72
2022/07/02 12:19:01;;;;;;;6.05;3.20;;;;;;;;;;5072294;28;20052;-71
2022/07/02 12:21:36;;;;;;;6.07;3.10;;;;;;;;;;5072145;28;20478;-73
2022/07/02 12:24:03;;;;;;;8.27;3.00;;;;;;;;;;5054364;28;20044;-72
2022/07/02 12:26:29;;;;;;;3.92;2.88;;;;;;;;;;5072116;28;20033;-70
2022/07/02 12:31:49;;;;;;;6.53;3.17;;;;;;;;;;5071672;28;20106;-71
2022/07/02 12:34:15;;;;;;;3.50;3.20;;;;;;;;;;5068633;28;20040;-70
2022/07/02 12:36:48;;;;;;;4.57;2.92;;;;;;;;;;5055040;28;20547;-72
2022/07/02 12:39:14;;;;;;;5.40;3.22;;;;;;;;;;5051968;28;20045;-70
2022/07/02 12:41:40;;;;;;;3.28;2.92;;;;;;;;;;5051550;28;20132;-71
2022/07/02 12:44:14;;;;;;;4.20;3.00;;;;;;;;;;5051788;28;20079;-71
2022/07/02 12:46:44;;;;;;;5.50;3.17;;;;;;;;;;5049262;28;20400;-72
2022/07/02 12:49:14;;;;;;;11.25;3.53;;;;;;;;;;5051723;28;20052;-71
2022/07/02 12:51:49;;;;;;;4.13;3.33;;;;;;;;;;5051424;28;20047;-71
2022/07/02 12:54:15;;;;;;;3.55;2.95;;;;;;;;;;5051952;28;20060;-71
2022/07/02 12:56:41;;;;;;;3.03;2.70;;;;;;;;;;5051100;28;20033;-71
2022/07/02 12:59:07;;;;;;;3.60;2.60;;;;;;;;;;5051720;28;20488;-70
2022/07/02 13:01:33;;;;;;;14.93;3.40;;;;;;;;;;5051904;28;20041;-72
2022/07/02 13:03:59;;;;;;;3.95;3.13;;;;;;;;;;5050285;28;20423;-72
2022/07/02 13:06:25;;;;;;;6.72;3.50;;;;;;;;;;5051376;28;20507;-72
2022/07/02 13:08:51;;;;;;;7.75;4.22;;;;;;;;;;5051296;28;20048;-70
2022/07/02 13:11:17;;;;;;;6.35;3.40;;;;;;;;;;5033591;28;20443;-72
2022/07/02 13:13:43;;;;;;;6.57;3.40;;;;;;;;;;5051062;28;20056;-72
2022/07/02 13:16:09;;;;;;;3.33;3.10;;;;;;;;;;5051383;28;20044;-71
2022/07/02 13:18:35;;;;;;;5.35;3.40;;;;;;;;;;5033833;28;20060;-72
2022/07/02 13:21:01;;;;;;;3.40;3.10;;;;;;;;;;5051122;28;20537;-71
2022/07/02 13:23:27;;;;;;;6.97;3.92;;;;;;;;;;5050947;28;20360;-71
2022/07/02 13:25:55;;;;;;;7.30;4.55;;;;;;;;;;5050274;28;20045;-71
2022/07/02 13:28:21;;;;;;;9.25;4.10;;;;;;;;;;5050757;28;20044;-73
2022/07/02 13:30:47;;;;;;;4.35;3.30;;;;;;;;;;5050551;28;20418;-71
2022/07/02 13:33:13;;;;;;;7.60;3.78;;;;;;;;;;5049576;28;20040;-72
2022/07/02 13:35:39;;;;;;;6.47;3.00;;;;;;;;;;5050511;28;20048;-72
2022/07/02 13:38:05;;;;;;;5.30;2.67;;;;;;;;;;5016340;28;20056;-72
2022/07/02 13:40:31;;;;;;;6.38;3.15;;;;;;;;;;5050649;28;20064;-72
2022/07/02 13:42:57;;;;;;;3.58;2.80;;;;;;;;;;5050243;28;20055;-72
2022/07/02 13:45:23;;;;;;;7.18;3.47;;;;;;;;;;5050637;28;20120;-70
2022/07/02 13:47:49;;;;;;;3.72;2.80;;;;;;;;;;5032428;28;20060;-71
2022/07/02 13:50:14;;;;;;;6.50;3.25;;;;;;;;;;5050519;28;20049;-71
2022/07/02 13:52:41;;;;;;;3.72;2.97;;;;;;;;;;5048901;28;20036;-72
2022/07/02 13:55:07;;;;;;;10.93;3.33;;;;;;;;;;5032314;28;20041;-72
2022/07/02 13:57:33;;;;;;;4.55;2.80;;;;;;;;;;5050048;28;20040;-70
2022/07/02 13:59:59;;;;;;;5.68;2.60;;;;;;;;;;5050205;28;20044;-72
2022/07/02 14:02:25;;;;;;;5.13;3.22;;;;;;;;;;5050236;28;20131;-72
2022/07/02 14:04:52;;;;;;;9.77;3.40;;;;;;;;;;5049825;28;20044;-72
2022/07/02 14:07:18;;;;;;;3.30;3.05;;;;;;;;;;5050072;28;20041;-71
2022/07/02 14:09:44;;;;;;;3.70;2.97;;;;;;;;;;5049987;28;20554;-71
2022/07/02 14:12:10;;;;;;;4.22;3.08;;;;;;;;;;5050133;28;20128;-72
2022/07/02 14:14:36;;;;;;;6.18;2.63;;;;;;;;;;5050154;28;20087;-71
2022/07/02 14:17:02;;;;;;;8.75;3.15;;;;;;;;;;5048386;28;20068;-70
2022/07/02 14:19:28;;;;;;;5.55;2.80;;;;;;;;;;5049928;28;20068;-72
2022/07/02 14:21:54;;;;;;;8.30;3.08;;;;;;;;;;5049530;28;20085;-71
2022/07/02 14:24:20;;;;;;;6.10;3.40;;;;;;;;;;5049822;28;20041;-71
2022/07/02 14:26:46;;;;;;;5.20;3.05;;;;;;;;;;5031895;28;20130;-70
2022/07/02 14:29:12;;;;;;;3.38;3.00;;;;;;;;;;5050359;28;20110;-70
2022/07/02 14:31:39;;;;;;;7.63;3.00;;;;;;;;;;5050953;28;20041;-71
2022/07/02 14:34:05;;;;;;;5.88;2.90;;;;;;;;;;5032728;28;20044;-71
2022/07/02 14:36:31;;;;;;;3.13;2.92;;;;;;;;;;5048425;28;20056;-71
2022/07/02 14:38:57;;;;;;;4.32;3.15;;;;;;;;;;5049502;28;20079;-72
2022/07/02 14:41:32;;;;;;;4.30;3.33;;;;;;;;;;5049347;28;20073;-71
2022/07/02 14:43:58;;;;;;;4.35;3.95;;;;;;;;;;5049259;28;20045;-71
2022/07/02 14:46:28;;;;;;;3.97;3.25;;;;;;;;;;5049524;28;20044;-72